sensor_id;sensor_type;location;lat;lon;timestamp;pressure;altitude;pressure_sealevel;temperature;humidity
73245;BME280;61460;41.158;-73.238;2023-04-27T00:00:04;102218.93;;;23.25;41.04
73245;BME280;61460;41.158;-73.238;2023-04-27T00:02:33;102215.80;;;23.20;41.16
73245;BME280;61460;41.158;-73.238;2023-04-27T00:05:05;102217.94;;;23.15;41.03
73245;BME280;61460;41.158;-73.238;2023-04-27T00:07:35;102223.82;;;23.01;41.85
73245;BME280;61460;41.158;-73.238;2023-04-27T00:10:07;102227.12;;;23.12;41.46
73245;BME280;61460;41.158;-73.238;2023-04-27T00:12:37;102235.21;;;23.07;41.47
73245;BME280;61460;41.158;-73.238;2023-04-27T00:15:08;102235.32;;;22.98;41.46
73245;BME280;61460;41.158;-73.238;2023-04-27T00:17:37;102235.03;;;22.90;41.55
73245;BME280;61460;41.158;-73.238;2023-04-27T00:20:09;102237.42;;;22.98;41.38
73245;BME280;61460;41.158;-73.238;2023-04-27T00:22:39;102244.21;;;22.95;41.46
73245;BME280;61460;41.158;-73.238;2023-04-27T00:25:09;102243.01;;;22.83;41.62
73245;BME280;61460;41.158;-73.238;2023-04-27T00:27:40;102249.70;;;22.89;41.44
73245;BME280;61460;41.158;-73.238;2023-04-27T00:30:11;102252.63;;;22.81;41.69
73245;BME280;61460;41.158;-73.238;2023-04-27T00:32:41;102256.03;;;22.82;41.72
73245;BME280;61460;41.158;-73.238;2023-04-27T00:35:12;102263.00;;;22.75;41.81
73245;BME280;61460;41.158;-73.238;2023-04-27T00:37:43;102268.11;;;22.74;41.76
73245;BME280;61460;41.158;-73.238;2023-04-27T00:40:13;102269.39;;;22.71;41.78
73245;BME280;61460;41.158;-73.238;2023-04-27T00:42:44;102272.40;;;22.74;41.78
73245;BME280;61460;41.158;-73.238;2023-04-27T00:45:14;102277.28;;;22.70;41.70
73245;BME280;61460;41.158;-73.238;2023-04-27T00:47:45;102281.51;;;22.76;41.58
73245;BME280;61460;41.158;-73.238;2023-04-27T00:50:18;102284.98;;;22.63;41.87
73245;BME280;61460;41.158;-73.238;2023-04-27T00:52:46;102285.87;;;22.66;41.72
73245;BME280;61460;41.158;-73.238;2023-04-27T00:55:17;102285.02;;;22.68;41.93
73245;BME280;61460;41.158;-73.238;2023-04-27T00:57:48;102284.77;;;22.85;41.53
73245;BME280;61460;41.158;-73.238;2023-04-27T01:00:18;102284.61;;;22.94;41.31
73245;BME280;61460;41.158;-73.238;2023-04-27T01:02:49;102282.50;;;22.98;41.60
73245;BME280;61460;41.158;-73.238;2023-04-27T01:05:19;102286.27;;;23.01;41.64
73245;BME280;61460;41.158;-73.238;2023-04-27T01:07:50;102291.64;;;23.07;41.63
73245;BME280;61460;41.158;-73.238;2023-04-27T01:10:21;102298.41;;;23.08;41.71
73245;BME280;61460;41.158;-73.238;2023-04-27T01:12:51;102297.09;;;23.10;41.79
73245;BME280;61460;41.158;-73.238;2023-04-27T01:15:22;102294.11;;;23.14;41.35
73245;BME280;61460;41.158;-73.238;2023-04-27T01:17:57;102293.85;;;23.17;41.42
73245;BME280;61460;41.158;-73.238;2023-04-27T01:20:23;102291.73;;;23.20;41.48
73245;BME280;61460;41.158;-73.238;2023-04-27T01:22:54;102289.15;;;23.26;41.47
73245;BME280;61460;41.158;-73.238;2023-04-27T01:25:25;102292.30;;;23.28;41.34
73245;BME280;61460;41.158;-73.238;2023-04-27T01:27:55;102290.59;;;23.33;41.63
73245;BME280;61460;41.158;-73.238;2023-04-27T01:30:26;102301.45;;;23.32;41.67
73245;BME280;61460;41.158;-73.238;2023-04-27T01:32:57;102303.21;;;23.39;41.67
73245;BME280;61460;41.158;-73.238;2023-04-27T01:35:27;102311.39;;;23.35;41.58
73245;BME280;61460;41.158;-73.238;2023-04-27T01:37:58;102312.02;;;23.40;41.47
73245;BME280;61460;41.158;-73.238;2023-04-27T01:40:28;102312.58;;;23.45;41.63
73245;BME280;61460;41.158;-73.238;2023-04-27T01:42:59;102313.29;;;23.49;41.72
73245;BME280;61460;41.158;-73.238;2023-04-27T01:45:30;102315.99;;;23.51;41.64
73245;BME280;61460;41.158;-73.238;2023-04-27T01:48:00;102315.78;;;23.56;41.55
73245;BME280;61460;41.158;-73.238;2023-04-27T01:50:31;102321.44;;;23.59;41.83
73245;BME280;61460;41.158;-73.238;2023-04-27T01:53:02;102321.89;;;23.58;41.62
73245;BME280;61460;41.158;-73.238;2023-04-27T01:55:32;102321.76;;;23.35;41.58
73245;BME280;61460;41.158;-73.238;2023-04-27T01:58:05;102315.89;;;23.18;41.89
73245;BME280;61460;41.158;-73.238;2023-04-27T02:00:34;102313.61;;;23.07;42.21
73245;BME280;61460;41.158;-73.238;2023-04-27T02:03:04;102316.44;;;22.97;42.23
73245;BME280;61460;41.158;-73.238;2023-04-27T02:05:38;102309.78;;;23.32;42.13
73245;BME280;61460;41.158;-73.238;2023-04-27T02:08:06;102308.48;;;23.52;41.58
73245;BME280;61460;41.158;-73.238;2023-04-27T02:10:36;102304.83;;;23.60;41.76
73245;BME280;61460;41.158;-73.238;2023-04-27T02:13:07;102297.31;;;23.51;41.81
73245;BME280;61460;41.158;-73.238;2023-04-27T02:15:37;102295.68;;;23.65;41.41
73245;BME280;61460;41.158;-73.238;2023-04-27T02:18:08;102290.44;;;23.56;41.70
73245;BME280;61460;41.158;-73.238;2023-04-27T02:20:39;102297.12;;;23.72;41.72
73245;BME280;61460;41.158;-73.238;2023-04-27T02:23:09;102298.48;;;23.70;41.83
73245;BME280;61460;41.158;-73.238;2023-04-27T02:25:40;102296.66;;;23.72;41.57
73245;BME280;61460;41.158;-73.238;2023-04-27T02:28:11;102301.55;;;23.78;41.62
73245;BME280;61460;41.158;-73.238;2023-04-27T02:30:41;102297.99;;;23.77;41.51
73245;BME280;61460;41.158;-73.238;2023-04-27T02:33:12;102297.22;;;23.70;41.79
73245;BME280;61460;41.158;-73.238;2023-04-27T02:35:44;102290.51;;;23.78;41.95
73245;BME280;61460;41.158;-73.238;2023-04-27T02:38:13;102285.89;;;23.81;41.76
73245;BME280;61460;41.158;-73.238;2023-04-27T02:40:44;102289.27;;;23.76;41.81
73245;BME280;61460;41.158;-73.238;2023-04-27T02:43:15;102294.40;;;23.76;41.49
73245;BME280;61460;41.158;-73.238;2023-04-27T02:45:45;102289.64;;;23.41;42.25
73245;BME280;61460;41.158;-73.238;2023-04-27T02:48:17;102285.31;;;23.26;42.84
73245;BME280;61460;41.158;-73.238;2023-04-27T02:50:47;102282.68;;;23.18;42.91
73245;BME280;61460;41.158;-73.238;2023-04-27T02:53:17;102278.55;;;23.10;42.98
73245;BME280;61460;41.158;-73.238;2023-04-27T02:55:48;102276.12;;;23.08;42.91
73245;BME280;61460;41.158;-73.238;2023-04-27T02:58:18;102265.66;;;23.05;43.25
73245;BME280;61460;41.158;-73.238;2023-04-27T03:00:53;102262.44;;;23.05;42.99
73245;BME280;61460;41.158;-73.238;2023-04-27T03:03:20;102254.22;;;22.98;43.25
73245;BME280;61460;41.158;-73.238;2023-04-27T03:05:50;102266.51;;;22.92;43.30
73245;BME280;61460;41.158;-73.238;2023-04-27T03:08:21;102267.91;;;23.00;43.37
73245;BME280;61460;41.158;-73.238;2023-04-27T03:10:52;102267.55;;;22.87;43.51
73245;BME280;61460;41.158;-73.238;2023-04-27T03:13:22;102269.58;;;22.98;43.31
73245;BME280;61460;41.158;-73.238;2023-04-27T03:15:53;102268.49;;;23.00;43.47
73245;BME280;61460;41.158;-73.238;2023-04-27T03:18:23;102271.81;;;22.92;43.47
73245;BME280;61460;41.158;-73.238;2023-04-27T03:21:03;102274.61;;;22.91;43.49
73245;BME280;61460;41.158;-73.238;2023-04-27T03:23:25;102272.27;;;22.92;43.55
73245;BME280;61460;41.158;-73.238;2023-04-27T03:25:56;102275.49;;;22.95;43.59
73245;BME280;61460;41.158;-73.238;2023-04-27T03:28:26;102277.00;;;22.94;43.94
73245;BME280;61460;41.158;-73.238;2023-04-27T03:30:57;102274.63;;;22.84;43.93
73245;BME280;61460;41.158;-73.238;2023-04-27T03:33:27;102273.89;;;22.81;43.77
73245;BME280;61460;41.158;-73.238;2023-04-27T03:35:58;102278.08;;;22.75;43.95
73245;BME280;61460;41.158;-73.238;2023-04-27T03:38:29;102281.74;;;22.72;43.93
73245;BME280;61460;41.158;-73.238;2023-04-27T03:40:59;102280.57;;;22.72;43.76
73245;BME280;61460;41.158;-73.238;2023-04-27T03:43:30;102275.58;;;22.73;43.68
73245;BME280;61460;41.158;-73.238;2023-04-27T03:46:01;102267.77;;;22.74;43.67
73245;BME280;61460;41.158;-73.238;2023-04-27T03:48:31;102264.57;;;22.73;43.59
73245;BME280;61460;41.158;-73.238;2023-04-27T03:51:02;102258.62;;;22.72;43.53
73245;BME280;61460;41.158;-73.238;2023-04-27T03:53:33;102254.34;;;22.68;43.49
73245;BME280;61460;41.158;-73.238;2023-04-27T03:56:04;102245.37;;;22.70;43.54
73245;BME280;61460;41.158;-73.238;2023-04-27T03:58:34;102238.47;;;22.63;43.65
73245;BME280;61460;41.158;-73.238;2023-04-27T04:01:05;102242.40;;;22.70;43.48
73245;BME280;61460;41.158;-73.238;2023-04-27T04:03:36;102243.81;;;22.70;43.41
73245;BME280;61460;41.158;-73.238;2023-04-27T04:06:06;102247.29;;;22.66;43.57
73245;BME280;61460;41.158;-73.238;2023-04-27T04:08:36;102250.74;;;22.68;43.41
73245;BME280;61460;41.158;-73.238;2023-04-27T04:11:07;102263.14;;;22.67;43.37
73245;BME280;61460;41.158;-73.238;2023-04-27T04:13:38;102265.36;;;22.66;43.49
73245;BME280;61460;41.158;-73.238;2023-04-27T04:16:09;102263.14;;;22.65;43.52
73245;BME280;61460;41.158;-73.238;2023-04-27T04:18:39;102255.51;;;22.64;43.41
73245;BME280;61460;41.158;-73.238;2023-04-27T04:21:10;102255.68;;;22.57;43.56
73245;BME280;61460;41.158;-73.238;2023-04-27T04:23:40;102256.38;;;22.68;43.36
73245;BME280;61460;41.158;-73.238;2023-04-27T04:26:11;102254.92;;;22.60;43.51
73245;BME280;61460;41.158;-73.238;2023-04-27T04:28:42;102255.42;;;22.65;43.50
73245;BME280;61460;41.158;-73.238;2023-04-27T04:31:12;102257.35;;;22.57;43.50
73245;BME280;61460;41.158;-73.238;2023-04-27T04:33:44;102253.83;;;22.59;43.42
73245;BME280;61460;41.158;-73.238;2023-04-27T04:36:18;102258.77;;;22.59;43.66
73245;BME280;61460;41.158;-73.238;2023-04-27T04:38:44;102262.67;;;22.61;43.58
73245;BME280;61460;41.158;-73.238;2023-04-27T04:41:15;102271.96;;;22.57;43.74
73245;BME280;61460;41.158;-73.238;2023-04-27T04:43:46;102274.61;;;22.53;43.82
73245;BME280;61460;41.158;-73.238;2023-04-27T04:46:16;102278.03;;;22.55;43.72
73245;BME280;61460;41.158;-73.238;2023-04-27T04:48:47;102281.44;;;22.56;43.67
73245;BME280;61460;41.158;-73.238;2023-04-27T04:51:17;102279.76;;;22.56;43.68
73245;BME280;61460;41.158;-73.238;2023-04-27T04:53:49;102277.03;;;22.50;43.64
73245;BME280;61460;41.158;-73.238;2023-04-27T04:56:19;102279.07;;;22.58;43.48
73245;BME280;61460;41.158;-73.238;2023-04-27T04:58:49;102274.70;;;22.59;43.53
73245;BME280;61460;41.158;-73.238;2023-04-27T05:01:20;102279.46;;;22.62;43.40
73245;BME280;61460;41.158;-73.238;2023-04-27T05:03:51;102272.93;;;22.58;43.57
73245;BME280;61460;41.158;-73.238;2023-04-27T05:06:21;102271.71;;;22.57;43.53
73245;BME280;61460;41.158;-73.238;2023-04-27T05:08:52;102265.59;;;22.51;43.65
73245;BME280;61460;41.158;-73.238;2023-04-27T05:11:23;102258.35;;;22.49;43.58
73245;BME280;61460;41.158;-73.238;2023-04-27T05:13:53;102258.56;;;22.58;43.54
73245;BME280;61460;41.158;-73.238;2023-04-27T05:16:24;102253.27;;;22.52;43.69
73245;BME280;61460;41.158;-73.238;2023-04-27T05:18:54;102253.32;;;22.51;43.62
73245;BME280;61460;41.158;-73.238;2023-04-27T05:21:25;102252.18;;;22.48;43.69
73245;BME280;61460;41.158;-73.238;2023-04-27T05:23:56;102256.62;;;22.47;43.95
73245;BME280;61460;41.158;-73.238;2023-04-27T05:26:26;102252.59;;;22.59;43.67
73245;BME280;61460;41.158;-73.238;2023-04-27T05:28:57;102252.87;;;22.51;43.77
73245;BME280;61460;41.158;-73.238;2023-04-27T05:31:27;102250.38;;;22.57;43.79
73245;BME280;61460;41.158;-73.238;2023-04-27T05:33:58;102256.24;;;22.55;43.85
73245;BME280;61460;41.158;-73.238;2023-04-27T05:36:29;102250.22;;;22.56;43.80
73245;BME280;61460;41.158;-73.238;2023-04-27T05:38:59;102243.55;;;22.61;43.66
73245;BME280;61460;41.158;-73.238;2023-04-27T05:41:30;102244.47;;;22.61;43.68
73245;BME280;61460;41.158;-73.238;2023-04-27T05:44:01;102243.88;;;22.59;43.73
73245;BME280;61460;41.158;-73.238;2023-04-27T05:46:32;102239.61;;;22.60;43.68
73245;BME280;61460;41.158;-73.238;2023-04-27T05:49:02;102232.30;;;22.58;43.70
73245;BME280;61460;41.158;-73.238;2023-04-27T05:51:33;102227.84;;;22.72;43.29
73245;BME280;61460;41.158;-73.238;2023-04-27T05:54:03;102226.31;;;22.60;43.63
73245;BME280;61460;41.158;-73.238;2023-04-27T05:56:34;102223.41;;;22.53;43.76
73245;BME280;61460;41.158;-73.238;2023-04-27T05:59:04;102220.50;;;22.58;43.67
73245;BME280;61460;41.158;-73.238;2023-04-27T06:01:35;102220.67;;;22.54;43.71
73245;BME280;61460;41.158;-73.238;2023-04-27T06:04:06;102215.73;;;22.55;43.69
73245;BME280;61460;41.158;-73.238;2023-04-27T06:06:36;102212.06;;;22.59;43.75
73245;BME280;61460;41.158;-73.238;2023-04-27T06:09:07;102206.67;;;22.58;43.63
73245;BME280;61460;41.158;-73.238;2023-04-27T06:11:38;102210.65;;;22.51;43.67
73245;BME280;61460;41.158;-73.238;2023-04-27T06:14:09;102211.41;;;22.56;43.68
73245;BME280;61460;41.158;-73.238;2023-04-27T06:16:40;102206.71;;;22.55;43.63
73245;BME280;61460;41.158;-73.238;2023-04-27T06:19:10;102206.74;;;22.56;43.62
73245;BME280;61460;41.158;-73.238;2023-04-27T06:21:40;102201.85;;;22.54;43.70
73245;BME280;61460;41.158;-73.238;2023-04-27T06:24:11;102200.89;;;22.54;43.66
73245;BME280;61460;41.158;-73.238;2023-04-27T06:26:42;102201.18;;;22.48;43.76
73245;BME280;61460;41.158;-73.238;2023-04-27T06:29:12;102204.13;;;22.51;43.76
73245;BME280;61460;41.158;-73.238;2023-04-27T06:31:43;102205.29;;;22.53;43.69
73245;BME280;61460;41.158;-73.238;2023-04-27T06:34:14;102208.09;;;22.62;43.44
73245;BME280;61460;41.158;-73.238;2023-04-27T06:36:44;102211.92;;;22.64;43.58
73245;BME280;61460;41.158;-73.238;2023-04-27T06:39:15;102212.33;;;22.65;43.40
73245;BME280;61460;41.158;-73.238;2023-04-27T06:41:46;102212.04;;;22.69;43.40
73245;BME280;61460;41.158;-73.238;2023-04-27T06:44:16;102205.43;;;22.56;43.70
73245;BME280;61460;41.158;-73.238;2023-04-27T06:46:47;102205.84;;;22.67;43.53
73245;BME280;61460;41.158;-73.238;2023-04-27T06:49:18;102206.99;;;22.58;43.81
73245;BME280;61460;41.158;-73.238;2023-04-27T06:51:49;102207.19;;;22.58;43.80
73245;BME280;61460;41.158;-73.238;2023-04-27T06:54:19;102213.96;;;22.59;43.86
73245;BME280;61460;41.158;-73.238;2023-04-27T06:56:50;102216.44;;;22.51;44.02
73245;BME280;61460;41.158;-73.238;2023-04-27T06:59:20;102225.04;;;22.55;43.88
73245;BME280;61460;41.158;-73.238;2023-04-27T07:01:51;102224.30;;;22.54;43.91
73245;BME280;61460;41.158;-73.238;2023-04-27T07:04:22;102221.47;;;22.58;43.75
73245;BME280;61460;41.158;-73.238;2023-04-27T07:06:52;102209.21;;;22.52;43.83
73245;BME280;61460;41.158;-73.238;2023-04-27T07:09:23;102199.17;;;22.49;43.88
73245;BME280;61460;41.158;-73.238;2023-04-27T07:11:54;102200.90;;;22.52;43.80
73245;BME280;61460;41.158;-73.238;2023-04-27T07:14:24;102200.29;;;22.58;43.57
73245;BME280;61460;41.158;-73.238;2023-04-27T07:16:56;102200.83;;;22.49;43.82
73245;BME280;61460;41.158;-73.238;2023-04-27T07:19:25;102198.44;;;22.49;43.85
73245;BME280;61460;41.158;-73.238;2023-04-27T07:21:56;102200.85;;;22.47;43.85
73245;BME280;61460;41.158;-73.238;2023-04-27T07:24:27;102192.53;;;22.39;44.13
73245;BME280;61460;41.158;-73.238;2023-04-27T07:26:57;102189.05;;;22.31;44.25
73245;BME280;61460;41.158;-73.238;2023-04-27T07:29:28;102185.86;;;22.33;44.23
73245;BME280;61460;41.158;-73.238;2023-04-27T07:31:59;102184.70;;;22.27;44.26
73245;BME280;61460;41.158;-73.238;2023-04-27T07:34:29;102175.97;;;22.22;44.34
73245;BME280;61460;41.158;-73.238;2023-04-27T07:37:00;102173.61;;;22.17;44.48
73245;BME280;61460;41.158;-73.238;2023-04-27T07:39:31;102177.40;;;22.23;44.41
73245;BME280;61460;41.158;-73.238;2023-04-27T07:42:02;102188.31;;;22.17;44.43
73245;BME280;61460;41.158;-73.238;2023-04-27T07:44:32;102184.62;;;22.18;44.46
73245;BME280;61460;41.158;-73.238;2023-04-27T07:47:04;102184.00;;;22.13;44.47
73245;BME280;61460;41.158;-73.238;2023-04-27T07:49:33;102196.43;;;22.16;44.52
73245;BME280;61460;41.158;-73.238;2023-04-27T07:52:04;102201.10;;;22.11;44.64
73245;BME280;61460;41.158;-73.238;2023-04-27T07:54:34;102200.68;;;22.10;44.57
73245;BME280;61460;41.158;-73.238;2023-04-27T07:57:07;102195.56;;;22.08;44.64
73245;BME280;61460;41.158;-73.238;2023-04-27T07:59:36;102193.58;;;22.09;44.52
73245;BME280;61460;41.158;-73.238;2023-04-27T08:02:06;102193.80;;;22.08;44.65
73245;BME280;61460;41.158;-73.238;2023-04-27T08:04:37;102202.83;;;22.09;44.63
73245;BME280;61460;41.158;-73.238;2023-04-27T08:07:08;102204.80;;;22.11;44.51
73245;BME280;61460;41.158;-73.238;2023-04-27T08:09:38;102201.09;;;22.15;44.42
73245;BME280;61460;41.158;-73.238;2023-04-27T08:12:09;102201.53;;;22.07;44.68
73245;BME280;61460;41.158;-73.238;2023-04-27T08:14:40;102201.28;;;22.11;44.48
73245;BME280;61460;41.158;-73.238;2023-04-27T08:17:10;102195.63;;;22.05;44.68
73245;BME280;61460;41.158;-73.238;2023-04-27T08:19:41;102197.43;;;22.06;44.73
73245;BME280;61460;41.158;-73.238;2023-04-27T08:22:12;102195.62;;;22.02;44.70
73245;BME280;61460;41.158;-73.238;2023-04-27T08:24:42;102198.20;;;22.08;44.65
73245;BME280;61460;41.158;-73.238;2023-04-27T08:27:13;102195.25;;;22.11;44.65
73245;BME280;61460;41.158;-73.238;2023-04-27T08:29:45;102189.39;;;22.14;44.68
73245;BME280;61460;41.158;-73.238;2023-04-27T08:32:15;102187.20;;;22.16;44.76
73245;BME280;61460;41.158;-73.238;2023-04-27T08:34:45;102183.08;;;22.15;44.88
73245;BME280;61460;41.158;-73.238;2023-04-27T08:37:15;102176.25;;;22.28;44.46
73245;BME280;61460;41.158;-73.238;2023-04-27T08:39:47;102176.34;;;22.32;44.56
73245;BME280;61460;41.158;-73.238;2023-04-27T08:42:17;102174.12;;;22.30;44.40
73245;BME280;61460;41.158;-73.238;2023-04-27T08:44:47;102177.12;;;22.27;44.46
73245;BME280;61460;41.158;-73.238;2023-04-27T08:47:18;102182.09;;;22.34;44.27
73245;BME280;61460;41.158;-73.238;2023-04-27T08:49:49;102185.22;;;22.25;44.42
73245;BME280;61460;41.158;-73.238;2023-04-27T08:52:19;102186.41;;;22.21;44.65
73245;BME280;61460;41.158;-73.238;2023-04-27T08:54:50;102181.91;;;22.29;44.71
73245;BME280;61460;41.158;-73.238;2023-04-27T08:57:21;102182.98;;;22.29;44.52
73245;BME280;61460;41.158;-73.238;2023-04-27T08:59:57;102178.78;;;22.17;44.83
73245;BME280;61460;41.158;-73.238;2023-04-27T09:02:21;102184.08;;;22.15;44.83
73245;BME280;61460;41.158;-73.238;2023-04-27T09:04:52;102197.44;;;22.13;44.78
73245;BME280;61460;41.158;-73.238;2023-04-27T09:07:23;102197.30;;;22.18;44.68
73245;BME280;61460;41.158;-73.238;2023-04-27T09:10:01;102197.55;;;22.16;44.88
73245;BME280;61460;41.158;-73.238;2023-04-27T09:12:24;102205.07;;;22.16;44.73
73245;BME280;61460;41.158;-73.238;2023-04-27T09:14:56;102209.69;;;22.17;44.66
73245;BME280;61460;41.158;-73.238;2023-04-27T09:17:26;102211.58;;;22.15;44.65
73245;BME280;61460;41.158;-73.238;2023-04-27T09:20:04;102216.46;;;22.10;44.75
73245;BME280;61460;41.158;-73.238;2023-04-27T09:22:27;102218.68;;;22.05;44.83
73245;BME280;61460;41.158;-73.238;2023-04-27T09:24:57;102222.87;;;22.09;44.66
73245;BME280;61460;41.158;-73.238;2023-04-27T09:27:28;102224.81;;;22.07;44.65
73245;BME280;61460;41.158;-73.238;2023-04-27T09:29:59;102227.46;;;22.02;44.85
73245;BME280;61460;41.158;-73.238;2023-04-27T09:32:29;102235.94;;;22.05;44.67
73245;BME280;61460;41.158;-73.238;2023-04-27T09:35:00;102237.48;;;22.02;44.68
73245;BME280;61460;41.158;-73.238;2023-04-27T09:37:31;102234.56;;;22.02;44.72
73245;BME280;61460;41.158;-73.238;2023-04-27T09:40:02;102225.03;;;22.03;44.53
73245;BME280;61460;41.158;-73.238;2023-04-27T09:42:32;102225.81;;;22.03;44.61
73245;BME280;61460;41.158;-73.238;2023-04-27T09:45:04;102229.79;;;22.06;44.53
73245;BME280;61460;41.158;-73.238;2023-04-27T09:47:33;102233.07;;;22.01;44.51
73245;BME280;61460;41.158;-73.238;2023-04-27T09:50:04;102231.94;;;21.99;44.92
73245;BME280;61460;41.158;-73.238;2023-04-27T09:52:34;102235.02;;;22.00;44.90
73245;BME280;61460;41.158;-73.238;2023-04-27T09:55:08;102240.72;;;21.98;44.76
73245;BME280;61460;41.158;-73.238;2023-04-27T09:57:39;102246.35;;;21.99;44.77
73245;BME280;61460;41.158;-73.238;2023-04-27T10:00:18;102248.09;;;22.05;44.54
73245;BME280;61460;41.158;-73.238;2023-04-27T10:02:51;102253.56;;;22.14;44.39
73245;BME280;61460;41.158;-73.238;2023-04-27T10:05:20;102255.25;;;22.05;44.56
73245;BME280;61460;41.158;-73.238;2023-04-27T10:07:39;102256.40;;;22.06;44.62
73245;BME280;61460;41.158;-73.238;2023-04-27T10:10:15;102259.99;;;22.01;44.57
73245;BME280;61460;41.158;-73.238;2023-04-27T10:12:40;102259.08;;;22.07;44.39
73245;BME280;61460;41.158;-73.238;2023-04-27T10:15:13;102263.62;;;22.01;44.73
73245;BME280;61460;41.158;-73.238;2023-04-27T10:17:46;102265.97;;;22.06;44.47
73245;BME280;61460;41.158;-73.238;2023-04-27T10:20:12;102267.21;;;21.96;44.80
73245;BME280;61460;41.158;-73.238;2023-04-27T10:22:44;102270.40;;;22.01;44.76
73245;BME280;61460;41.158;-73.238;2023-04-27T10:25:16;102274.20;;;21.94;44.77
73245;BME280;61460;41.158;-73.238;2023-04-27T10:27:48;102283.24;;;21.90;44.89
73245;BME280;61460;41.158;-73.238;2023-04-27T10:30:17;102277.14;;;21.86;45.00
73245;BME280;61460;41.158;-73.238;2023-04-27T10:32:51;102283.50;;;21.92;44.81
73245;BME280;61460;41.158;-73.238;2023-04-27T10:35:16;102289.71;;;21.91;44.86
73245;BME280;61460;41.158;-73.238;2023-04-27T10:37:46;102284.39;;;21.82;45.09
73245;BME280;61460;41.158;-73.238;2023-04-27T10:40:17;102279.21;;;21.89;44.92
73245;BME280;61460;41.158;-73.238;2023-04-27T10:42:47;102281.50;;;21.84;45.00
73245;BME280;61460;41.158;-73.238;2023-04-27T10:45:25;102284.98;;;21.86;45.06
73245;BME280;61460;41.158;-73.238;2023-04-27T10:47:49;102282.91;;;21.86;44.92
73245;BME280;61460;41.158;-73.238;2023-04-27T10:50:21;102277.71;;;21.84;45.11
73245;BME280;61460;41.158;-73.238;2023-04-27T10:52:50;102277.17;;;21.83;45.07
73245;BME280;61460;41.158;-73.238;2023-04-27T10:55:22;102280.73;;;21.84;45.26
73245;BME280;61460;41.158;-73.238;2023-04-27T10:57:52;102282.06;;;21.82;45.28
73245;BME280;61460;41.158;-73.238;2023-04-27T11:00:24;102284.69;;;21.80;45.23
73245;BME280;61460;41.158;-73.238;2023-04-27T11:02:53;102294.49;;;21.86;45.18
73245;BME280;61460;41.158;-73.238;2023-04-27T11:05:25;102289.15;;;21.89;45.03
73245;BME280;61460;41.158;-73.238;2023-04-27T11:10:24;102286.10;;;21.88;45.69
73245;BME280;61460;41.158;-73.238;2023-04-27T11:12:56;102286.61;;;21.97;45.48
73245;BME280;61460;41.158;-73.238;2023-04-27T11:15:26;102298.32;;;21.92;45.52
73245;BME280;61460;41.158;-73.238;2023-04-27T11:18:05;102308.12;;;21.95;45.80
73245;BME280;61460;41.158;-73.238;2023-04-27T11:20:27;102308.14;;;21.87;45.85
73245;BME280;61460;41.158;-73.238;2023-04-27T11:22:58;102311.90;;;21.87;45.71
73245;BME280;61460;41.158;-73.238;2023-04-27T11:25:29;102312.57;;;21.90;45.63
73245;BME280;61460;41.158;-73.238;2023-04-27T11:27:59;102320.57;;;21.92;45.37
73245;BME280;61460;41.158;-73.238;2023-04-27T11:30:30;102322.65;;;22.01;45.19
73245;BME280;61460;41.158;-73.238;2023-04-27T11:33:07;102317.95;;;22.21;45.45
73245;BME280;61460;41.158;-73.238;2023-04-27T11:35:32;102321.61;;;22.28;45.32
73245;BME280;61460;41.158;-73.238;2023-04-27T11:38:02;102325.11;;;22.33;44.92
73245;BME280;61460;41.158;-73.238;2023-04-27T11:40:32;102327.01;;;22.28;45.06
73245;BME280;61460;41.158;-73.238;2023-04-27T11:43:03;102326.68;;;22.38;45.46
73245;BME280;61460;41.158;-73.238;2023-04-27T11:45:34;102323.95;;;22.23;45.65
73245;BME280;61460;41.158;-73.238;2023-04-27T11:48:04;102325.66;;;22.18;45.48
73245;BME280;61460;41.158;-73.238;2023-04-27T11:50:35;102327.96;;;22.16;45.51
73245;BME280;61460;41.158;-73.238;2023-04-27T11:53:06;102329.76;;;22.11;45.42
73245;BME280;61460;41.158;-73.238;2023-04-27T11:55:36;102323.48;;;22.15;45.23
73245;BME280;61460;41.158;-73.238;2023-04-27T11:58:13;102323.97;;;22.10;45.24
73245;BME280;61460;41.158;-73.238;2023-04-27T12:00:37;102317.90;;;22.09;45.19
73245;BME280;61460;41.158;-73.238;2023-04-27T12:03:08;102321.28;;;22.06;45.14
73245;BME280;61460;41.158;-73.238;2023-04-27T12:05:47;102326.63;;;22.03;45.13
73245;BME280;61460;41.158;-73.238;2023-04-27T12:08:09;102333.27;;;22.00;45.19
73245;BME280;61460;41.158;-73.238;2023-04-27T12:10:40;102325.75;;;21.95;45.22
73245;BME280;61460;41.158;-73.238;2023-04-27T12:13:11;102328.38;;;21.91;45.24
73245;BME280;61460;41.158;-73.238;2023-04-27T12:15:42;102318.94;;;21.92;45.10
73245;BME280;61460;41.158;-73.238;2023-04-27T12:18:12;102306.87;;;21.88;45.16
73245;BME280;61460;41.158;-73.238;2023-04-27T12:20:42;102296.17;;;21.84;45.19
73245;BME280;61460;41.158;-73.238;2023-04-27T12:23:13;102293.90;;;21.84;45.13
73245;BME280;61460;41.158;-73.238;2023-04-27T12:25:44;102298.28;;;21.80;45.27
73245;BME280;61460;41.158;-73.238;2023-04-27T12:28:14;102297.21;;;21.79;45.30
73245;BME280;61460;41.158;-73.238;2023-04-27T12:30:45;102292.76;;;21.82;45.23
73245;BME280;61460;41.158;-73.238;2023-04-27T12:33:16;102295.00;;;21.81;45.21
73245;BME280;61460;41.158;-73.238;2023-04-27T12:35:46;102289.42;;;21.76;45.25
73245;BME280;61460;41.158;-73.238;2023-04-27T12:38:17;102295.34;;;21.76;45.24
73245;BME280;61460;41.158;-73.238;2023-04-27T12:40:48;102295.84;;;21.74;45.33
73245;BME280;61460;41.158;-73.238;2023-04-27T12:43:18;102293.86;;;21.74;45.23
73245;BME280;61460;41.158;-73.238;2023-04-27T12:45:49;102283.98;;;21.72;45.27
73245;BME280;61460;41.158;-73.238;2023-04-27T12:48:19;102277.34;;;21.68;45.43